• Join FlightAware (Why Join?)
  • Login
  • US Flag 
11:20AM EDT


 

Airport Tracker/Info


-or-


 

Live Flight TrackerFlight Track Log ✈ KCE2 ✈ 16-May-2013 ✈ CYSJ - KPVD

Flight Track Log - Related Links

Times and Time Zones

All times are in EDT time to prevent confusion due to time zone crossing. See the KCE2 flight status page for this flight to view local times or setup timezone preferences in your user account.

Time Position Orientation Groundspeed Altitude Reporting Facility
EDT Latitude Longitude Course Direction KTS MPH feet Rate Location/Type
03:16PM 45.1670 -66.0490 224° Southwest 297 342 11,800  Level FlightAware
03:16PM 45.1260 -66.1040 223° Southwest 297 342 15,000 4,560 Climbing FlightAware
03:17PM 45.0910 -66.1520 224° Southwest 302 348 17,500 4,080 Climbing FlightAware
03:18PM 45.0550 -66.2000 223° Southwest 310 357 19,800 4,080 Climbing FlightAware
03:18PM 45.0130 -66.2580 224° Southwest 292 336 22,600 3,480 Climbing FlightAware
03:19PM 44.9690 -66.3170 224° Southwest 297 342 24,800 2,820 Climbing FlightAware
03:20PM 44.9120 -66.3940 224° Southwest 311 358 27,300 2,100 Climbing FlightAware
03:20PM 44.8750 -66.4440 224° Southwest 335 386 28,000 480 Climbing FlightAware
03:21PM 44.8160 -66.5240 224° Southwest 379 436 28,000 720 Level FlightAware
03:22PM 44.7700 -66.5850 223° Southwest 378 435 29,100 2,460 Climbing FlightAware
03:23PM 44.7070 -66.6680 223° Southwest 357 411 31,500 2,820 Climbing FlightAware
03:23PM 44.6620 -66.7290 224° Southwest 335 386 33,400 2,400 Climbing FlightAware
03:24PM 44.6110 -66.7980 224° Southwest 335 386 34,900 1,260 Climbing FlightAware
03:26PM 44.5070 -66.9350 223° Southwest 373 429 36,300 1,020 Climbing FlightAware
03:27PM 44.4050 -67.0690 223° Southwest 379 436 37,800 1,200 Climbing FlightAware
03:28PM 44.3200 -67.1810 223° Southwest 382 440 39,200 900 Climbing FlightAware
03:29PM 44.2210 -67.3100 223° Southwest 399 459 40,000 300 Climbing FlightAware
03:30PM 44.1220 -67.4390 223° Southwest 420 483 40,000  Level FlightAware
03:32PM 44.0200 -67.5710 223° Southwest 424 488 40,000  Level FlightAware
03:33PM 43.8970 -67.7280 223° Southwest 422 486 40,000  Level FlightAware
03:34PM 43.7990 -67.8540 223° Southwest 415 478 40,000  Level FlightAware
03:35PM 43.6990 -67.9810 223° Southwest 412 474 40,000  Level FlightAware
03:37PM 43.6030 -68.1030 223° Southwest 412 474 40,000  Level FlightAware
03:38PM 43.4840 -68.2520 222° Southwest 411 473 40,000  Level FlightAware
03:39PM 43.4360 -68.3120 222° Southwest 411 473 40,000  Level FlightAware
03:39PM 43.3880 -68.3710 222° Southwest 411 473 40,000  Level FlightAware
03:40PM 43.3400 -68.4310 222° Southwest 411 473 40,000  Level FlightAware
03:41PM 43.2800 -68.5050 222° Southwest 411 473 40,000  Level FlightAware
03:41PM 43.2320 -68.5640 222° Southwest 411 473 40,000  Level FlightAware
03:42PM 43.1110 -68.7170 223° Southwest 395 455 40,000  Level FlightAware
03:43PM 43.0270 -68.8210 222° Southwest 390 449 40,000  Level FlightAware
03:45PM 42.9300 -68.9400 222° Southwest 388 447 40,000 -240 Level FlightAware
03:46PM 42.8140 -69.0820 222° Southwest 389 448 39,500 -660 Descending FlightAware
03:47PM 42.7650 -69.1420 222° Southwest 388 447 38,700 -1,740 Descending FlightAware
03:48PM 42.6970 -69.2240 222° Southwest 393 452 37,100 -1,920 Descending FlightAware
03:48PM 42.6510 -69.2810 222° Southwest 390 449 36,000 -1,980 Descending FlightAware
03:49PM 42.5800 -69.3660 221° Southwest 390 449 34,300 -1,980 Descending FlightAware
03:50PM 42.5370 -69.4180 222° Southwest 391 450 33,200 -1,980 Descending FlightAware
03:51PM 42.4200 -69.5590 222° Southwest 406 467 30,400 -2,100 Descending FlightAware
03:52PM 42.3200 -69.6780 221° Southwest 411 473 27,900 -2,100 Descending FlightAware
03:56PM 42.0150 -70.0370 221° Southwest 383 441 20,500 -1,860 Descending FlightAware
03:57PM 41.9200 -70.1180 212° Southwest 380 437 19,200 -780 Descending FlightAware
03:58PM 41.8700 -70.1600 212° Southwest 380 437 19,200 -1,200 Level FlightAware
03:58PM 41.8040 -70.2150 212° Southwest 361 415 17,500 -2,580 Descending FlightAware
03:59PM 41.7440 -70.2650 212° Southwest 348 400 15,600 -1,440 Descending FlightAware
04:00PM 41.6980 -70.3040 212° Southwest 348 400 15,600  Level FlightAware
04:00PM 41.6510 -70.3430 212° Southwest 348 400 15,600  Level FlightAware
04:01PM 41.6050 -70.3810 212° Southwest 348 400 15,600  Level FlightAware
04:02PM 41.5590 -70.4200 212° Southwest 348 400 15,600  Level FlightAware
04:02PM 41.5010 -70.4690 212° Southwest 348 400 15,600 -4,800 Level FlightAware
04:03PM 41.6022 -70.6300 212° Southwest 264 304 7,300 -5,040 Descending Boston Center
04:04PM 41.6183 -70.7294 282° West 267 307 6,000 -660 Descending Boston Center
04:05PM 41.6322 -70.8208 282° West 261 300 6,000  Level Boston Center
04:06PM 41.6461 -70.9150 281° West 257 296 6,100 60 Climbing Boston Center
04:07PM 41.6461 -70.9122 90° East 252 290 6,100 -720 Level Boston Center
04:08PM 41.6706 -71.0311 285° West 257 296 5,200 -1,020 Descending Boston Center
04:08PM 41.7047 -71.0942 306° West 260 299 4,400 -780 Descending Boston Center
04:10PM 41.7472 -71.1825 303° West 252 290 3,700 -840 Descending Boston Center
04:10PM 41.7583 -71.2461 283° West 233 268 2,900 -1,200 Descending Boston Center
04:11PM 41.7628 -71.2656 287° West 233 268 2,500 -900 Descending Boston Center
04:11PM 41.7717 -71.3211 282° West 218 251 2,000 -540 Descending Boston Center
04:12PM 41.7739 -71.3406 279° West 221 254 2,000 -720 Level Boston Center
04:12PM 41.7661 -71.3853 257° West 168 193 1,300 -1,020 Descending Boston Center
04:13PM 41.7619 -71.3936 236° Southwest 166 191 1,000 -900 Descending Boston Center
04:13PM 41.7392 -71.4164 217° Southwest 133 153 400 -720 Descending Boston Center
04:14PM 41.7331 -71.4219 214° Southwest 135 155 200 6,420 Descending Boston Center
04:15PM 41.7044 -71.4697 231° Southwest 135 155 10,000 4,860 Climbing Boston Center
04:16PM 41.6797 -71.5033 225° Southwest 135 155 10,000  Level Boston Center
04:17PM 41.6528 -71.5400 225° Southwest 135 155 10,000  Level Boston Center
04:19PM 41.7167 -71.4167 North  Level FlightAware Approximate
04:26PM 41.7240 -71.4282 North  Level Estimated
04:27PM 41.7240 -71.4282 North  Level Estimated
04:28PM 41.7240 -71.4282 North  Level Estimated